Time;durP1;ratioP1;P1;durP2;ratioP2;P2;SDS_P1;SDS_P2;PMS_P1;PMS_P2;Temp;Humidity;BMP_temperature;BMP_pressure;BME280_temperature;BME280_humidity;BME280_pressure;Samples;Min_cycle;Max_cycle;Signal;HPM_P1;HPM_P2
2023/04/19 00:01:31;;;;;;;14.73;13.32;;;9.70;99.90;;;10.34;89.40;98448.66;5230737;28;20617;-65
2023/04/19 00:04:04;;;;;;;16.45;14.35;;;9.70;99.90;;;10.21;89.46;98452.78;5235657;28;20668;-65
2023/04/19 00:06:40;;;;;;;15.10;13.55;;;9.70;99.90;;;10.40;88.21;98449.84;5235072;28;20605;-63
2023/04/19 00:09:14;;;;;;;15.23;13.73;;;9.80;99.90;;;10.36;88.97;98449.66;5240869;28;20909;-64
2023/04/19 00:11:47;;;;;;;15.23;13.75;;;9.80;99.90;;;10.28;89.39;98449.91;5239695;28;20200;-64
2023/04/19 00:14:20;;;;;;;15.05;13.65;;;9.70;99.90;;;10.11;90.72;98441.97;5237032;28;20200;-65
2023/04/19 00:16:53;;;;;;;15.05;13.55;;;9.60;99.90;;;10.18;89.25;98448.34;5237198;28;20217;-64
2023/04/19 00:19:26;;;;;;;15.50;13.80;;;9.70;99.90;;;10.09;90.13;98448.63;5234887;28;20710;-64
2023/04/19 00:22:01;;;;;;;16.85;15.05;;;9.60;99.90;;;10.09;89.76;98448.63;5239175;28;20217;-64
2023/04/19 00:24:34;;;;;;;16.33;14.63;;;9.60;99.90;;;10.21;89.18;98440.91;5234450;28;20811;-65
2023/04/19 00:27:07;;;;;;;15.95;14.30;;;9.70;99.90;;;10.23;89.58;98441.03;5231543;28;20608;-63
2023/04/19 00:29:40;;;;;;;16.50;14.80;;;9.60;99.90;;;10.05;91.12;98450.88;5237824;28;20663;-64
2023/04/19 00:32:13;;;;;;;16.13;14.43;;;9.60;99.90;;;10.02;90.42;98445.56;5232920;28;20199;-63
2023/04/19 00:34:46;;;;;;;16.02;14.43;;;9.50;99.90;;;10.10;91.17;98436.72;5233989;28;20204;-64
2023/04/19 00:37:20;;;;;;;15.77;14.07;;;9.60;99.90;;;10.25;90.63;98432.69;5237048;28;20205;-64
2023/04/19 00:39:53;;;;;;;17.05;15.23;;;9.70;99.90;;;10.28;89.90;98434.59;5236986;28;20200;-64
2023/04/19 00:42:26;;;;;;;15.45;13.85;;;9.60;99.90;;;10.28;89.39;98435.47;5235280;28;20460;-63
2023/04/19 00:44:59;;;;;;;15.52;13.88;;;9.70;99.90;;;10.26;89.29;98437.00;5233272;28;20652;-64
2023/04/19 00:47:32;;;;;;;15.82;14.23;;;9.70;99.90;;;10.26;89.33;98431.00;5237278;28;20284;-64
2023/04/19 00:50:08;;;;;;;14.38;12.98;;;9.60;99.90;;;10.27;90.04;98432.81;5239452;28;20208;-64
2023/04/19 00:52:42;;;;;;;16.90;15.20;;;9.60;99.90;;;10.00;90.17;98429.25;5237089;28;20287;-64
2023/04/19 00:55:15;;;;;;;16.40;14.80;;;9.60;99.90;;;9.95;91.22;98428.03;5238856;28;20338;-64
2023/04/19 00:57:50;;;;;;;16.67;14.88;;;9.50;99.90;;;10.17;90.09;98427.84;5237782;28;20200;-64
2023/04/19 01:00:23;;;;;;;15.63;14.13;;;9.60;99.90;;;10.17;90.32;98418.50;5242761;28;20423;-63
2023/04/19 01:02:56;;;;;;;15.07;13.68;;;9.50;99.90;;;10.11;90.95;98423.19;5240032;28;20271;-64
2023/04/19 01:05:30;;;;;;;17.13;15.20;;;9.50;99.90;;;10.00;90.27;98416.47;5239999;28;20287;-63
2023/04/19 01:08:05;;;;;;;16.25;14.65;;;9.50;99.90;;;10.14;89.67;98420.84;5240767;28;20201;-63
2023/04/19 01:10:38;;;;;;;16.30;14.52;;;9.50;99.90;;;10.15;90.20;98422.59;5243864;28;20196;-64
2023/04/19 01:13:11;;;;;;;14.90;13.52;;;9.50;99.90;;;10.24;90.64;98420.66;5240790;28;20200;-64
2023/04/19 01:15:45;;;;;;;15.57;14.07;;;9.60;99.90;;;10.22;91.27;98417.16;5240451;28;20231;-64
2023/04/19 01:18:18;;;;;;;16.48;14.88;;;9.60;99.90;;;10.31;89.44;98415.25;5240243;28;20277;-65
2023/04/19 01:20:52;;;;;;;16.58;14.98;;;9.60;99.90;;;10.22;89.92;98416.28;5239976;28;20200;-64
2023/04/19 01:23:26;;;;;;;15.55;14.05;;;9.60;99.90;;;10.26;90.01;98410.56;5240158;28;20262;-64
2023/04/19 01:26:00;;;;;;;16.38;14.80;;;9.60;99.90;;;10.11;89.68;98416.41;5237795;28;20219;-64
2023/04/19 01:28:33;;;;;;;16.75;15.05;;;9.50;99.90;;;10.10;90.67;98413.75;5246610;28;20289;-65
2023/04/19 01:31:06;;;;;;;16.33;14.82;;;9.50;99.90;;;10.10;91.28;98416.28;5242686;28;20196;-64
2023/04/19 01:33:39;;;;;;;16.67;15.05;;;9.50;99.90;;;10.07;91.15;98403.31;5242500;28;20279;-64
2023/04/19 01:36:12;;;;;;;17.25;15.55;;;9.40;99.90;;;10.00;91.06;98401.16;5238380;28;20687;-63
2023/04/19 01:38:47;;;;;;;16.48;14.77;;;9.40;99.90;;;10.07;91.26;98403.31;5237137;28;20664;-65
2023/04/19 01:41:21;;;;;;;16.95;15.27;;;9.40;99.90;;;10.18;90.05;98402.38;5241180;28;20204;-64
2023/04/19 01:43:54;;;;;;;18.05;16.15;;;9.50;99.90;;;10.11;91.22;98395.97;5240798;28;20230;-64
2023/04/19 01:46:27;;;;;;;16.60;14.90;;;9.50;99.90;;;10.11;91.04;98395.09;5233936;28;20223;-64
2023/04/19 01:49:00;;;;;;;16.55;14.82;;;9.50;99.90;;;10.08;91.03;98389.78;5237622;28;20286;-65
2023/04/19 01:51:33;;;;;;;15.98;14.40;;;9.40;99.90;;;10.08;91.00;98392.34;5241089;28;20697;-64
2023/04/19 01:54:08;;;;;;;15.85;14.25;;;9.40;99.90;;;10.25;90.16;98391.81;5232705;28;20883;-64
2023/04/19 01:56:41;;;;;;;17.65;15.88;;;9.50;99.90;;;10.13;90.12;98388.44;5239622;28;20701;-64
2023/04/19 01:59:14;;;;;;;16.17;14.60;;;9.40;99.90;;;10.14;90.32;98396.19;5241449;28;20375;-64
2023/04/19 02:01:47;;;;;;;16.73;15.13;;;9.50;99.90;;;10.10;90.06;98388.19;5233079;28;20303;-65
2023/04/19 02:04:21;;;;;;;17.25;15.52;;;9.40;99.90;;;10.08;91.13;98390.66;5234817;28;20620;-64
2023/04/19 02:06:54;;;;;;;17.50;15.75;;;9.40;99.90;;;10.02;90.97;98381.72;5242109;28;20236;-65
2023/04/19 02:09:28;;;;;;;17.05;15.23;;;9.40;99.90;;;10.04;91.10;98377.56;5227137;28;20193;-64
2023/04/19 02:12:01;;;;;;;18.27;16.42;;;9.40;99.90;;;10.01;90.35;98379.94;5236096;28;20200;-64
2023/04/19 02:14:35;;;;;;;17.38;15.68;;;9.40;99.90;;;9.79;92.98;98378.50;5235401;28;20210;-64
2023/04/19 02:17:09;;;;;;;17.67;15.60;;;9.30;99.90;;;9.98;90.96;98378.06;5240164;28;20244;-65
2023/04/19 02:19:42;;;;;;;17.90;16.02;;;9.30;99.90;;;9.98;91.27;98372.94;5233874;28;20259;-64
2023/04/19 02:22:15;;;;;;;17.35;15.55;;;9.30;99.90;;;10.01;90.40;98365.47;5237254;28;20197;-64
2023/04/19 02:24:50;;;;;;;17.95;16.17;;;9.40;99.90;;;9.82;92.36;98360.81;5237110;28;20231;-64
2023/04/19 02:27:23;;;;;;;16.98;15.27;;;9.30;99.90;;;9.93;91.69;98367.53;5240205;28;20188;-64
2023/04/19 02:29:56;;;;;;;18.83;16.90;;;9.30;99.90;;;9.69;91.91;98363.31;5238452;28;20204;-64
2023/04/19 02:32:30;;;;;;;17.60;15.80;;;9.30;99.90;;;9.60;92.76;98362.69;5240373;28;20196;-65
2023/04/19 02:35:04;;;;;;;17.90;16.23;;;9.20;99.90;;;9.70;92.89;98358.31;5234657;28;20250;-64
2023/04/19 02:37:37;;;;;;;16.60;14.90;;;9.20;99.90;;;9.73;93.55;98355.09;5237622;28;20208;-64
2023/04/19 02:40:12;;;;;;;18.07;16.17;;;9.20;99.90;;;9.84;93.06;98358.34;5235719;28;20196;-64
2023/04/19 02:42:45;;;;;;;17.30;15.50;;;9.20;99.90;;;9.82;92.84;98354.84;5240428;28;20204;-63
2023/04/19 02:45:18;;;;;;;17.38;15.68;;;9.20;99.90;;;9.74;92.83;98355.97;5231757;28;20244;-64
2023/04/19 02:47:51;;;;;;;16.83;15.15;;;9.20;99.90;;;9.82;92.73;98354.84;5235708;28;20211;-64
2023/04/19 02:50:24;;;;;;;18.85;16.88;;;9.20;99.90;;;9.82;91.76;98354.84;5235344;28;20241;-64
2023/04/19 02:52:58;;;;;;;17.73;15.93;;;9.20;99.90;;;9.72;93.04;98348.19;5241486;28;20197;-63
2023/04/19 02:55:33;;;;;;;18.15;16.35;;;9.10;99.90;;;9.71;93.31;98346.44;5243815;28;20216;-64
2023/04/19 02:58:06;;;;;;;19.25;16.90;;;9.10;99.90;;;9.68;92.44;98341.13;5240293;28;20565;-64
2023/04/19 03:00:39;;;;;;;17.70;15.93;;;9.10;99.90;;;9.69;91.93;98346.31;5236902;28;20219;-64
2023/04/19 03:03:14;;;;;;;19.02;17.02;;;9.10;99.90;;;9.77;92.10;98346.84;5241468;28;20247;-64
2023/04/19 03:05:47;;;;;;;18.03;16.13;;;9.10;99.90;;;9.70;92.84;98344.69;5235178;28;20330;-64
2023/04/19 03:08:20;;;;;;;18.58;16.67;;;9.10;99.90;;;9.54;93.28;98346.97;5240347;28;20292;-63
2023/04/19 03:10:55;;;;;;;18.30;16.50;;;9.10;99.90;;;9.62;92.28;98340.72;5240654;28;20714;-64
2023/04/19 03:13:28;;;;;;;18.63;16.63;;;9.10;99.90;;;9.54;93.09;98336.75;5231988;28;20196;-64
2023/04/19 03:16:01;;;;;;;18.00;16.02;;;9.00;99.90;;;9.54;93.36;98337.63;5233268;28;20217;-64
2023/04/19 03:18:35;;;;;;;17.77;15.97;;;9.00;99.90;;;9.51;93.38;98339.09;5236374;28;20200;-64
2023/04/19 03:21:08;;;;;;;18.77;16.77;;;8.90;99.90;;;9.44;93.17;98345.41;5233971;28;20198;-63
2023/04/19 03:23:41;;;;;;;19.07;17.07;;;8.90;99.90;;;9.38;93.45;98335.69;5240115;28;20608;-64
2023/04/19 03:26:15;;;;;;;18.50;16.60;;;8.80;99.90;;;9.30;93.88;98336.84;5236860;28;20228;-64
2023/04/19 03:28:48;;;;;;;17.87;16.20;;;8.80;99.90;;;9.36;93.90;98337.25;5229732;28;20204;-64
2023/04/19 03:31:21;;;;;;;17.48;15.52;;;8.80;99.90;;;9.37;93.81;98333.03;5237255;28;20204;-63
2023/04/19 03:33:54;;;;;;;19.90;17.80;;;8.70;99.90;;;9.34;93.64;98331.16;5241226;28;20578;-64
2023/04/19 03:36:27;;;;;;;19.23;17.27;;;8.70;99.90;;;9.20;94.23;98326.75;5235038;28;20224;-64
2023/04/19 03:39:02;;;;;;;17.13;15.30;;;8.60;99.90;;;9.38;93.62;98330.56;5235805;28;20204;-64
2023/04/19 03:41:36;;;;;;;17.55;15.65;;;8.70;99.90;;;9.40;93.64;98321.38;5238435;28;20202;-65
2023/04/19 03:44:09;;;;;;;17.97;16.20;;;8.70;99.90;;;9.48;92.57;98317.69;5232771;28;20694;-64
2023/04/19 03:46:45;;;;;;;20.25;18.15;;;8.80;99.90;;;9.37;93.37;98313.50;5236755;28;20596;-64
2023/04/19 03:49:18;;;;;;;19.60;17.60;;;8.80;99.90;;;9.21;94.14;98315.75;5236521;28;20648;-64
2023/04/19 03:51:51;;;;;;;18.47;16.63;;;8.70;99.90;;;9.13;94.88;98316.88;5231376;28;20197;-64
2023/04/19 03:54:25;;;;;;;19.40;17.40;;;8.60;99.90;;;9.14;94.37;98311.91;5234200;28;20201;-64
2023/04/19 03:56:59;;;;;;;18.30;16.33;;;8.60;99.90;;;9.19;94.33;98312.25;5230059;28;20561;-65
2023/04/19 03:59:32;;;;;;;18.15;16.52;;;8.60;99.90;;;9.17;94.96;98313.78;5239490;28;20196;-63
2023/04/19 04:02:06;;;;;;;19.03;17.13;;;8.60;99.90;;;9.13;94.71;98322.91;5233646;28;20193;-63
2023/04/19 04:04:39;;;;;;;19.10;17.20;;;8.60;99.90;;;8.97;95.28;98318.38;5235955;28;20232;-63
2023/04/19 04:07:13;;;;;;;18.80;16.90;;;8.60;99.90;;;8.88;96.56;98320.28;5231107;28;20221;-64
2023/04/19 04:09:46;;;;;;;19.77;17.77;;;8.50;99.90;;;9.09;95.53;98317.47;5236304;28;20207;-63
2023/04/19 04:12:21;;;;;;;19.13;17.07;;;8.60;99.90;;;9.01;96.41;98325.47;5234309;28;20679;-63
2023/04/19 04:14:54;;;;;;;19.53;17.20;;;8.50;99.90;;;9.13;94.59;98319.44;5237903;28;20291;-64
2023/04/19 04:17:27;;;;;;;18.90;17.00;;;8.60;99.90;;;9.25;94.49;98320.31;5235568;28;20201;-63
2023/04/19 04:20:00;;;;;;;18.98;16.98;;;8.70;99.90;;;9.16;94.38;98319.69;5240118;28;22039;-64
2023/04/19 04:22:33;;;;;;;18.10;16.37;;;8.60;99.90;;;9.18;93.71;98323.19;5237241;28;20283;-64
2023/04/19 04:25:07;;;;;;;17.50;15.70;;;8.60;99.90;;;9.15;94.32;98316.22;5239483;28;20228;-63
2023/04/19 04:27:42;;;;;;;19.77;17.02;;;8.60;99.90;;;9.08;94.13;98314.03;5236958;28;20204;-63
2023/04/19 04:30:15;;;;;;;19.73;17.70;;;8.60;99.90;;;9.07;95.13;98321.56;5235272;28;20200;-64
2023/04/19 04:32:50;;;;;;;18.33;16.40;;;8.60;99.90;;;9.14;94.74;98323.78;5242411;28;20689;-63
2023/04/19 04:35:23;;;;;;;18.53;16.63;;;8.60;99.90;;;9.22;95.04;98320.09;5244340;28;20249;-63
2023/04/19 04:37:56;;;;;;;18.47;16.47;;;8.60;99.90;;;9.27;93.75;98320.41;5241587;28;20196;-64
2023/04/19 04:40:29;;;;;;;18.17;16.27;;;8.60;99.90;;;9.22;93.79;98331.19;5243479;28;20304;-64
2023/04/19 04:43:04;;;;;;;17.60;15.80;;;8.60;99.90;;;9.28;93.54;98332.41;5239930;28;20204;-62
2023/04/19 04:45:37;;;;;;;17.80;16.07;;;8.70;99.90;;;9.27;93.68;98334.06;5239184;28;20222;-64
2023/04/19 04:48:10;;;;;;;18.33;16.53;;;8.70;99.90;;;9.21;93.16;98331.06;5238324;28;20310;-65
2023/04/19 04:50:44;;;;;;;18.93;17.03;;;8.70;99.90;;;9.11;94.26;98331.22;5240613;28;20348;-63
2023/04/19 04:53:17;;;;;;;18.03;16.23;;;8.60;99.90;;;9.18;93.53;98330.84;5244256;28;20197;-63
2023/04/19 04:55:50;;;;;;;18.90;17.00;;;8.70;99.90;;;9.39;92.70;98329.81;5237628;28;20227;-64
2023/04/19 04:58:24;;;;;;;19.27;17.37;;;8.80;99.90;;;9.24;92.91;98328.72;5240802;28;20203;-65
2023/04/19 05:00:57;;;;;;;17.90;16.08;;;8.70;99.90;;;9.34;92.14;98333.69;5235692;28;20208;-63
2023/04/19 05:03:30;;;;;;;19.35;17.25;;;8.80;99.90;;;9.08;94.33;98328.47;5234424;28;20210;-65
2023/04/19 05:06:04;;;;;;;18.10;16.23;;;8.70;99.90;;;9.07;93.78;98336.88;5243607;28;20251;-62
2023/04/19 05:08:37;;;;;;;17.13;15.33;;;8.60;99.90;;;9.16;93.80;98332.44;5235284;28;20208;-65
2023/04/19 05:11:11;;;;;;;18.53;16.63;;;8.60;99.90;;;9.25;93.33;98335.63;5240791;28;20203;-65
2023/04/19 05:13:46;;;;;;;19.33;17.43;;;8.70;99.90;;;9.33;92.25;98337.03;5239864;28;20565;-65
2023/04/19 05:16:19;;;;;;;17.58;15.73;;;8.80;99.90;;;9.30;92.64;98336.84;5242240;28;20302;-64
2023/04/19 05:18:52;;;;;;;19.13;16.90;;;8.80;99.90;;;9.35;92.57;98340.56;5233795;28;20291;-64
2023/04/19 05:21:26;;;;;;;17.90;15.63;;;8.80;99.90;;;9.31;91.54;98343.69;5235346;28;20216;-64
2023/04/19 05:23:59;;;;;;;19.10;16.33;;;8.80;99.90;;;9.21;92.07;98338.72;5243922;28;20200;-64
2023/04/19 05:26:32;;;;;;;17.13;15.33;;;8.70;99.90;;;9.24;91.40;98333.84;5237947;28;20216;-65
2023/04/19 05:29:06;;;;;;;18.60;16.80;;;8.80;99.90;;;9.21;92.48;98329.44;5241029;28;20300;-64
2023/04/19 05:31:39;;;;;;;17.20;15.43;;;8.80;99.90;;;9.41;91.97;98335.91;5237902;28;20282;-64
2023/04/19 05:34:12;;;;;;;17.40;15.60;;;8.90;99.90;;;9.50;90.87;98334.75;5241669;28;20207;-64
2023/04/19 05:36:46;;;;;;;16.87;14.63;;;9.00;99.90;;;9.60;90.09;98329.50;5241027;28;20302;-64
2023/04/19 05:39:19;;;;;;;16.73;15.03;;;9.00;99.90;;;9.78;90.18;98337.53;5238322;28;20227;-64
2023/04/19 05:41:52;;;;;;;16.10;14.43;;;9.10;99.90;;;9.76;90.20;98340.00;5242899;28;20208;-65
2023/04/19 05:44:27;;;;;;;17.63;15.73;;;9.10;99.90;;;9.74;88.92;98340.66;5243083;28;20200;-65
2023/04/19 05:47:00;;;;;;;15.82;14.20;;;9.20;99.90;;;9.59;89.77;98331.19;5238086;28;20224;-65
2023/04/19 05:49:33;;;;;;;15.85;14.20;;;9.10;99.90;;;9.72;89.45;98332.88;5241334;28;20254;-65
2023/04/19 05:52:06;;;;;;;17.23;15.52;;;9.20;99.90;;;9.88;88.69;98335.69;5238880;28;20279;-65
2023/04/19 05:54:39;;;;;;;17.42;15.63;;;9.20;99.90;;;9.35;90.18;98343.13;5239003;28;20208;-64
2023/04/19 05:57:12;;;;;;;17.47;15.77;;;9.10;99.90;;;9.57;89.95;98334.41;5240286;28;20219;-65
2023/04/19 05:59:47;;;;;;;16.23;14.63;;;9.10;99.90;;;9.88;89.50;98340.81;5241703;28;20701;-65
2023/04/19 06:02:20;;;;;;;15.85;14.23;;;9.20;99.90;;;9.78;88.24;98337.53;5237128;28;20219;-65
2023/04/19 06:04:53;;;;;;;17.37;15.07;;;9.20;99.90;;;9.92;87.02;98335.13;5240705;28;20236;-65
2023/04/19 06:07:26;;;;;;;17.35;15.57;;;9.30;99.90;;;9.96;86.93;98338.78;5239256;28;20200;-64
2023/04/19 06:10:09;;;;;;;16.40;14.70;;;9.50;99.90;;;9.81;86.49;98338.59;5238951;28;21852;-64
2023/04/19 06:12:42;;;;;;;16.83;15.07;;;9.40;99.90;;;9.92;88.05;98340.22;5240893;28;20211;-65
2023/04/19 06:15:17;;;;;;;16.17;14.50;;;9.50;99.90;;;10.01;87.01;98327.19;5236843;28;20319;-65
2023/04/19 06:17:50;;;;;;;16.13;14.52;;;9.50;99.90;;;10.13;85.62;98333.13;5239934;28;20261;-64
2023/04/19 06:20:23;;;;;;;16.83;15.00;;;9.60;99.90;;;10.27;85.36;98328.06;5234930;28;20628;-65
2023/04/19 06:22:56;;;;;;;16.58;14.88;;;9.60;99.90;;;10.40;86.00;98330.63;5237433;28;20209;-65
2023/04/19 06:25:30;;;;;;;16.92;15.32;;;9.70;99.90;;;10.33;84.87;98326.81;5239871;28;20224;-65
2023/04/19 06:28:03;;;;;;;15.77;14.00;;;9.70;99.90;;;10.52;85.78;98323.75;5238380;28;20197;-65
2023/04/19 06:30:37;;;;;;;16.40;14.68;;;9.80;99.90;;;10.60;84.11;98332.81;5239936;28;20300;-64
2023/04/19 06:33:10;;;;;;;15.93;14.38;;;9.90;99.90;;;10.51;83.03;98333.91;5239170;28;20214;-65
2023/04/19 06:35:43;;;;;;;16.30;14.60;;;9.90;99.90;;;10.59;83.11;98322.50;5240691;28;20588;-64
2023/04/19 06:38:16;;;;;;;16.52;14.82;;;9.90;99.90;;;10.61;83.11;98331.13;5237265;28;20288;-64
2023/04/19 06:40:49;;;;;;;16.95;15.00;;;10.00;99.90;;;10.36;83.52;98332.13;5243323;28;20287;-65
2023/04/19 06:43:23;;;;;;;14.95;13.55;;;9.90;99.90;;;10.64;83.44;98328.78;5240103;28;20334;-65
2023/04/19 06:46:00;;;;;;;15.13;13.73;;;10.00;99.90;;;10.79;83.04;98332.31;5240443;28;20329;-65
2023/04/19 06:48:34;;;;;;;16.08;14.45;;;10.10;99.90;;;10.78;82.97;98332.22;5240168;28;20247;-65
2023/04/19 06:51:07;;;;;;;15.85;14.23;;;10.10;99.90;;;10.95;80.08;98326.50;5241681;28;20193;-65
2023/04/19 06:53:41;;;;;;;14.88;13.40;;;10.30;99.90;;;11.20;81.29;98330.59;5237425;28;20689;-63
2023/04/19 06:56:14;;;;;;;16.27;14.57;;;10.50;99.90;;;11.17;80.21;98331.28;5233596;28;20229;-65
2023/04/19 06:58:47;;;;;;;15.35;13.75;;;10.60;99.90;;;11.44;79.54;98318.41;5241191;28;20715;-65
2023/04/19 07:01:21;;;;;;;14.77;13.35;;;10.70;99.90;;;11.83;78.53;98325.06;5239210;28;20243;-65
2023/04/19 07:03:55;;;;;;;14.63;13.20;;;10.90;99.90;;;12.01;74.88;98340.66;5234776;28;20202;-64
2023/04/19 07:06:29;;;;;;;14.27;12.80;;;11.30;99.90;;;12.17;75.08;98324.53;5235666;28;20759;-65
2023/04/19 07:09:03;;;;;;;15.07;13.05;;;11.50;99.90;;;12.25;74.19;98319.84;5236139;28;20192;-64
2023/04/19 07:11:36;;;;;;;13.32;12.13;;;11.50;99.90;;;12.35;75.00;98322.13;5233894;28;20619;-66
2023/04/19 07:14:09;;;;;;;13.23;11.88;;;11.50;99.90;;;12.61;72.02;98319.34;5240590;28;20632;-65
2023/04/19 07:16:43;;;;;;;12.32;11.13;;;11.90;99.90;;;12.50;74.32;98311.84;5245450;28;20311;-65
2023/04/19 07:19:18;;;;;;;13.32;12.02;;;11.80;99.90;;;12.66;70.81;98309.38;5239862;28;20267;-66
2023/04/19 07:21:51;;;;;;;13.00;11.80;;;11.90;99.90;;;12.81;70.27;98304.19;5241562;28;20287;-65
2023/04/19 07:24:26;;;;;;;13.38;12.07;;;12.00;99.90;;;12.75;70.08;98309.00;5239475;28;20715;-65
2023/04/19 07:27:00;;;;;;;13.75;12.48;;;11.90;99.90;;;12.41;70.12;98307.09;5233202;28;20227;-65
2023/04/19 07:29:35;;;;;;;12.52;11.23;;;11.60;99.90;;;12.56;69.59;98309.63;5236174;28;20205;-64
2023/04/19 07:32:10;;;;;;;12.65;11.40;;;11.90;99.90;;;12.29;71.29;98311.53;5239874;28;20199;-65
2023/04/19 07:34:44;;;;;;;12.50;11.30;;;11.50;99.90;;;12.20;71.75;98306.75;5237090;28;20217;-63
2023/04/19 07:37:17;;;;;;;12.85;11.65;;;11.40;99.90;;;12.04;71.70;98311.78;5237787;28;20204;-63
2023/04/19 07:39:50;;;;;;;12.80;11.60;;;11.40;99.90;;;11.77;73.43;98308.44;5239844;28;20207;-65
2023/04/19 07:42:24;;;;;;;13.00;11.57;;;11.20;99.90;;;11.38;73.64;98297.56;5235956;28;20801;-64
2023/04/19 07:44:58;;;;;;;12.30;11.10;;;11.00;99.90;;;11.45;73.80;98302.28;5239124;28;20206;-65
2023/04/19 07:47:33;;;;;;;13.93;12.43;;;11.00;99.90;;;11.46;73.36;98301.47;5239836;28;20586;-65
2023/04/19 07:50:08;;;;;;;12.07;10.98;;;11.10;99.90;;;11.69;73.21;98298.63;5241175;28;20232;-64
2023/04/19 07:52:41;;;;;;;13.55;12.23;;;11.10;99.90;;;11.73;73.11;98298.03;5237127;28;20200;-65
2023/04/19 07:55:14;;;;;;;13.90;12.68;;;11.20;99.90;;;11.90;73.22;98301.63;5237701;28;20744;-66
2023/04/19 07:57:47;;;;;;;12.80;11.50;;;11.30;99.90;;;12.06;72.30;98298.25;5237057;28;20357;-65
2023/04/19 08:00:21;;;;;;;14.43;12.55;;;11.40;99.90;;;12.15;72.42;98287.66;5237794;28;20208;-66
2023/04/19 08:02:56;;;;;;;13.43;12.13;;;11.50;99.90;;;11.98;72.64;98299.50;5240027;28;21630;-65
2023/04/19 08:05:30;;;;;;;12.98;11.68;;;11.40;99.90;;;12.07;72.74;98300.03;5237594;28;20290;-65
2023/04/19 08:08:04;;;;;;;13.32;11.07;;;11.40;99.90;;;12.12;72.16;98298.63;5236930;28;20239;-64
2023/04/19 08:10:37;;;;;;;12.80;11.50;;;11.40;99.90;;;12.19;73.64;98294.75;5232133;28;20197;-66
2023/04/19 08:13:10;;;;;;;13.27;11.98;;;11.50;99.90;;;12.22;71.77;98296.56;5229926;28;20576;-65
2023/04/19 08:15:43;;;;;;;13.35;11.95;;;11.60;99.90;;;12.36;71.78;98299.16;5232561;28;20239;-66
2023/04/19 08:18:20;;;;;;;12.77;11.57;;;11.60;99.90;;;12.47;71.96;98297.19;5244251;28;20196;-66
2023/04/19 08:20:55;;;;;;;12.98;11.80;;;11.70;99.90;;;12.30;70.89;98297.91;5235550;28;20196;-65
2023/04/19 08:23:28;;;;;;;12.82;11.65;;;11.60;99.90;;;12.51;69.54;98294.00;5233949;28;20737;-62
2023/04/19 08:26:19;;;;;;;13.70;12.40;;;11.80;99.90;;;12.81;69.59;98286.25;5241969;28;20231;-65
2023/04/19 08:28:52;;;;;;;12.60;11.27;;;12.10;99.90;;;13.21;65.18;98280.72;5246395;28;20207;-65
2023/04/19 08:31:25;;;;;;;11.48;10.27;;;12.40;99.90;;;13.39;66.79;98279.19;5237361;28;20196;-65
2023/04/19 08:34:01;;;;;;;12.10;10.77;;;12.50;99.90;;;14.07;61.34;98270.66;5235175;28;20208;-65
2023/04/19 08:36:34;;;;;;;12.30;11.07;;;13.40;99.90;;;14.03;61.45;98267.88;5227314;28;20259;-63
2023/04/19 08:39:20;;;;;;;13.00;11.80;;;13.40;99.90;;;13.76;61.99;98273.34;5231024;28;20213;-66
2023/04/19 08:42:07;;;;;;;11.93;10.73;;;13.10;99.90;;;14.07;63.48;98264.63;5226542;28;20208;-65
2023/04/19 08:44:57;;;;;;;11.95;10.95;;;13.20;99.90;;;14.16;60.49;98259.94;5237701;28;20261;-65
2023/04/19 08:47:52;;;;;;;11.95;10.75;;;13.20;99.90;;;14.23;60.40;98254.31;5237133;28;20227;-65
2023/04/19 08:50:35;;;;;;;12.25;11.13;;;13.40;99.90;;;14.04;61.09;98259.34;5236118;28;20630;-65
2023/04/19 08:53:29;;;;;;;11.32;10.23;;;13.20;99.90;;;13.91;61.67;98257.84;5235351;28;20216;-64
2023/04/19 08:56:03;;;;;;;11.48;10.35;;;13.20;99.90;;;13.38;65.79;98253.41;5233527;28;20773;-65
2023/04/19 08:58:52;;;;;;;11.82;10.73;;;12.70;99.90;;;13.35;65.65;98254.13;5236094;28;20201;-65
2023/04/19 09:01:46;;;;;;;12.10;11.00;;;12.60;99.90;;;13.16;66.69;98251.34;5233741;28;20224;-65
2023/04/19 09:04:19;;;;;;;11.40;10.30;;;12.40;99.90;;;13.41;65.11;98251.88;5238800;28;20204;-65
2023/04/19 09:07:23;;;;;;;11.23;10.23;;;12.60;99.90;;;13.08;64.41;98249.28;5229750;28;20247;-65
2023/04/19 09:10:07;;;;;;;11.77;10.68;;;12.50;99.90;;;12.94;65.74;98249.34;5231732;28;20197;-65
2023/04/19 09:12:41;;;;;;;11.25;10.25;;;12.30;99.90;;;13.02;66.27;98238.69;5240380;28;20572;-65
2023/04/19 09:15:14;;;;;;;11.90;10.75;;;12.30;99.90;;;13.27;64.14;98242.56;5231831;28;20220;-65
2023/04/19 09:18:05;;;;;;;12.35;11.10;;;12.50;99.90;;;13.17;65.55;98236.03;5233932;28;20204;-65
2023/04/19 09:20:40;;;;;;;12.63;11.32;;;12.50;99.90;;;13.01;66.23;98242.03;5238530;28;20212;-65
2023/04/19 09:23:16;;;;;;;12.07;10.88;;;12.40;99.90;;;13.07;66.71;98241.47;5234210;28;20251;-65
2023/04/19 09:25:53;;;;;;;11.88;10.68;;;12.40;99.90;;;13.23;66.45;98228.66;5239914;28;20307;-64
2023/04/19 09:28:56;;;;;;;11.95;10.85;;;12.50;99.90;;;13.16;67.17;98238.50;5236744;28;20200;-66
2023/04/19 09:31:31;;;;;;;12.82;11.52;;;12.50;99.90;;;13.04;66.42;98237.06;5233330;28;20193;-64
2023/04/19 09:34:23;;;;;;;13.40;12.10;;;12.50;99.90;;;13.11;67.35;98232.28;5237880;28;20192;-66
2023/04/19 09:36:56;;;;;;;12.32;11.13;;;12.40;99.90;;;12.71;67.13;98232.69;5241168;28;20213;-63
2023/04/19 09:39:49;;;;;;;12.20;10.98;;;12.20;99.90;;;12.96;68.53;98222.97;5235973;28;20208;-65
2023/04/19 09:42:22;;;;;;;11.27;10.18;;;12.30;99.90;;;13.21;67.73;98229.38;5237667;28;20204;-62
2023/04/19 09:45:16;;;;;;;11.80;10.77;;;12.50;99.90;;;13.28;64.98;98226.38;5238934;28;20217;-66
2023/04/19 09:48:03;;;;;;;10.57;9.35;;;12.50;99.90;;;13.19;65.44;98215.56;5247856;28;20670;-63
2023/04/19 09:50:37;;;;;;;10.70;9.73;;;12.50;99.90;;;13.22;66.45;98216.63;5238160;28;20937;-65
2023/04/19 09:53:29;;;;;;;10.95;9.85;;;12.50;99.90;;;13.11;64.44;98211.75;5240834;28;20710;-66
2023/04/19 09:56:05;;;;;;;10.77;9.77;;;12.40;99.90;;;13.16;66.35;98220.53;5238301;28;20233;-64
2023/04/19 09:58:38;;;;;;;12.48;10.57;;;12.30;99.90;;;12.98;66.12;98208.50;5239299;28;20292;-65
2023/04/19 10:01:28;;;;;;;11.80;10.63;;;12.30;99.90;;;12.88;66.61;98208.84;5237383;28;20208;-65
2023/04/19 10:04:04;;;;;;;11.98;10.98;;;12.20;99.90;;;12.89;65.66;98210.59;5241962;28;20202;-65
2023/04/19 10:06:55;;;;;;;10.88;9.77;;;12.20;99.90;;;13.09;67.00;98203.94;5236791;28;20225;-64
2023/04/19 10:09:31;;;;;;;12.25;11.02;;;12.30;99.90;;;13.16;66.00;98205.16;5241926;28;20205;-65
2023/04/19 10:12:11;;;;;;;12.20;10.88;;;12.30;99.90;;;13.14;66.77;98206.78;5244744;28;20216;-66
2023/04/19 10:15:06;;;;;;;12.30;11.10;;;12.30;99.90;;;13.12;67.11;98200.66;5237630;28;20202;-65
2023/04/19 10:17:40;;;;;;;11.68;10.52;;;12.40;99.90;;;13.27;67.03;98196.34;5243448;28;20634;-66
2023/04/19 10:20:23;;;;;;;12.27;11.07;;;12.50;99.90;;;12.99;67.78;98196.56;5234941;28;20224;-65
2023/04/19 10:22:57;;;;;;;12.27;11.18;;;12.40;99.90;;;13.00;68.33;98199.22;5238042;28;20206;-65
2023/04/19 10:25:30;;;;;;;10.90;9.80;;;12.30;99.90;;;13.21;68.67;98201.13;5236978;28;20221;-65
2023/04/19 10:28:06;;;;;;;12.30;11.13;;;12.40;99.90;;;13.41;67.69;98197.94;5243298;28;20232;-65
2023/04/19 10:30:54;;;;;;;12.55;11.35;;;12.60;99.90;;;13.23;67.95;98191.84;5236818;28;20595;-65
2023/04/19 10:33:30;;;;;;;11.55;10.55;;;12.50;99.90;;;13.09;68.38;98193.69;5236241;28;20216;-65
2023/04/19 10:36:04;;;;;;;12.43;11.23;;;12.40;99.90;;;13.13;70.24;98189.59;5242098;28;20418;-62
2023/04/19 10:38:40;;;;;;;13.48;12.13;;;12.40;99.90;;;13.07;70.31;98191.03;5242808;28;20203;-63
2023/04/19 10:41:14;;;;;;;11.85;10.65;;;12.30;99.90;;;13.21;70.30;98188.31;5236038;28;20202;-62
2023/04/19 10:44:12;;;;;;;11.80;10.60;;;12.40;99.90;;;13.34;70.31;98189.88;5244700;28;20232;-64
2023/04/19 10:46:47;;;;;;;12.30;11.10;;;12.50;99.90;;;13.44;68.87;98186.94;5237177;28;20228;-64